Time;durP1;ratioP1;P1;durP2;ratioP2;P2;SDS_P1;SDS_P2;PMS_P1;PMS_P2;Temp;Humidity;BMP_temperature;BMP_pressure;BME280_temperature;BME280_humidity;BME280_pressure;Samples;Min_cycle;Max_cycle;Signal;HPM_P1;HPM_P2
2023/09/29 00:01:32;;;;;;;;;;;23.00;73.60;;;;;;5102556;28;20393;-49
2023/09/29 00:03:59;;;;;;;;;;;23.00;73.80;;;;;;5126089;28;19912;-49
2023/09/29 00:06:25;;;;;;;;;;;23.00;73.80;;;;;;5126375;28;20447;-47
2023/09/29 00:08:51;;;;;;;;;;;23.00;73.90;;;;;;5125893;27;19976;-49
2023/09/29 00:11:17;;;;;;;;;;;23.00;73.80;;;;;;5126886;27;19910;-49
2023/09/29 00:13:43;;;;;;;;;;;23.00;73.90;;;;;;5131008;27;19912;-49
2023/09/29 00:16:09;;;;;;;;;;;23.00;73.80;;;;;;5119738;28;19919;-48
2023/09/29 00:18:34;;;;;;;;;;;23.00;73.80;;;;;;5124982;28;19930;-49
2023/09/29 00:21:00;;;;;;;;;;;23.00;73.70;;;;;;5125564;28;19908;-48
2023/09/29 00:23:26;;;;;;;;;;;23.00;73.50;;;;;;5126025;27;19915;-48
2023/09/29 00:25:52;;;;;;;;;;;23.00;73.30;;;;;;5124759;28;19951;-49
2023/09/29 00:28:18;;;;;;;;;;;23.00;73.20;;;;;;5126038;27;19910;-50
2023/09/29 00:30:44;;;;;;;;;;;23.00;73.10;;;;;;5124876;27;19921;-49
2023/09/29 00:33:10;;;;;;;;;;;23.00;73.00;;;;;;5125361;28;20568;-50
2023/09/29 00:35:37;;;;;;;;;;;23.00;72.90;;;;;;5124450;27;19912;-49
2023/09/29 00:38:03;;;;;;;;;;;23.00;73.10;;;;;;5125333;28;19915;-48
2023/09/29 00:40:28;;;;;;;;;;;23.00;73.00;;;;;;5099033;28;19911;-48
2023/09/29 00:42:54;;;;;;;;;;;23.00;73.20;;;;;;5125786;27;19975;-50
2023/09/29 00:45:23;;;;;;;;;;;23.00;73.20;;;;;;5117297;28;19907;-49
2023/09/29 00:47:50;;;;;;;;;;;22.90;73.20;;;;;;5125362;27;19919;-49
2023/09/29 00:50:17;;;;;;;;;;;22.90;73.10;;;;;;5124838;28;19907;-48
2023/09/29 00:52:42;;;;;;;;;;;22.90;73.10;;;;;;5133169;27;19916;-53
2023/09/29 00:55:13;;;;;;;;;;;22.90;73.10;;;;;;5137208;27;19916;-49
2023/09/29 00:57:39;;;;;;;;;;;22.90;72.90;;;;;;5106661;28;19924;-48
2023/09/29 01:00:13;;;;;;;;;;;22.90;72.70;;;;;;5105895;28;19912;-48
2023/09/29 01:02:40;;;;;;;;;;;22.90;72.70;;;;;;5124073;28;19919;-49
2023/09/29 01:05:06;;;;;;;;;;;22.90;72.70;;;;;;5125004;28;19914;-50
2023/09/29 01:07:32;;;;;;;;;;;22.90;72.60;;;;;;5123967;28;19915;-48
2023/09/29 01:09:58;;;;;;;;;;;22.90;72.60;;;;;;5089331;28;20002;-48
2023/09/29 01:12:25;;;;;;;;;;;22.90;72.60;;;;;;5124911;28;19912;-49
2023/09/29 01:14:51;;;;;;;;;;;22.90;72.60;;;;;;5091001;28;19971;-49
2023/09/29 01:17:18;;;;;;;;;;;22.90;72.60;;;;;;5124504;28;19911;-50
2023/09/29 01:19:44;;;;;;;;;;;22.90;72.70;;;;;;5123734;28;19957;-50
2023/09/29 01:22:10;;;;;;;;;;;22.90;72.60;;;;;;5124653;28;19911;-49
2023/09/29 01:24:37;;;;;;;;;;;22.90;73.40;;;;;;5105207;28;20393;-49
2023/09/29 01:27:03;;;;;;;;;;;22.80;72.50;;;;;;5124578;28;19932;-50
2023/09/29 01:29:30;;;;;;;;;;;22.80;72.50;;;;;;5123867;28;20577;-50
2023/09/29 01:31:56;;;;;;;;;;;22.80;72.60;;;;;;5121200;28;20003;-49
2023/09/29 01:34:24;;;;;;;;;;;22.80;72.50;;;;;;5119286;28;19915;-52
2023/09/29 01:36:50;;;;;;;;;;;22.80;73.30;;;;;;5123874;28;19912;-50
2023/09/29 01:39:16;;;;;;;;;;;22.80;72.40;;;;;;5123959;28;19911;-49
2023/09/29 01:41:43;;;;;;;;;;;22.80;72.40;;;;;;5122659;28;19923;-51
2023/09/29 01:44:10;;;;;;;;;;;22.80;72.50;;;;;;5120446;28;19911;-51
2023/09/29 01:46:37;;;;;;;;;;;22.80;72.40;;;;;;5123647;28;19914;-51
2023/09/29 01:49:02;;;;;;;;;;;22.80;72.40;;;;;;5124268;28;19947;-50
2023/09/29 01:51:29;;;;;;;;;;;22.80;72.50;;;;;;5123062;28;19918;-50
2023/09/29 01:53:55;;;;;;;;;;;22.80;72.50;;;;;;5121225;28;19919;-48
2023/09/29 01:56:21;;;;;;;;;;;22.80;72.50;;;;;;5123168;28;19920;-50
2023/09/29 01:58:50;;;;;;;;;;;22.80;72.50;;;;;;5123010;28;19920;-52
2023/09/29 02:01:16;;;;;;;;;;;22.70;72.50;;;;;;5124620;27;19908;-50
2023/09/29 02:03:44;;;;;;;;;;;22.70;72.60;;;;;;5123574;28;20027;-49
2023/09/29 02:06:10;;;;;;;;;;;22.70;72.60;;;;;;5123208;27;19998;-49
2023/09/29 02:08:36;;;;;;;;;;;22.70;72.60;;;;;;5122762;27;19914;-53
2023/09/29 02:11:04;;;;;;;;;;;22.70;72.50;;;;;;5122687;28;19941;-49
2023/09/29 02:13:30;;;;;;;;;;;22.70;72.60;;;;;;5123420;27;19994;-50
2023/09/29 02:15:56;;;;;;;;;;;22.70;72.70;;;;;;5122539;28;19915;-48
2023/09/29 02:18:22;;;;;;;;;;;22.70;72.60;;;;;;5123054;28;19966;-49
2023/09/29 02:20:49;;;;;;;;;;;22.70;72.60;;;;;;5122357;28;19999;-50
2023/09/29 02:23:16;;;;;;;;;;;22.70;72.60;;;;;;5123845;28;19907;-49
2023/09/29 02:25:42;;;;;;;;;;;22.70;72.60;;;;;;5122522;28;19916;-51
2023/09/29 02:28:11;;;;;;;;;;;22.60;72.60;;;;;;5123342;28;19907;-49
2023/09/29 02:30:38;;;;;;;;;;;22.60;72.60;;;;;;5122319;28;19918;-48
2023/09/29 02:33:04;;;;;;;;;;;22.60;72.60;;;;;;5123112;28;20303;-48
2023/09/29 02:35:30;;;;;;;;;;;22.60;72.60;;;;;;5123482;28;19922;-52
2023/09/29 02:37:56;;;;;;;;;;;22.60;72.60;;;;;;5122535;28;19919;-50
2023/09/29 02:40:23;;;;;;;;;;;22.60;72.60;;;;;;5123124;28;19912;-51
2023/09/29 02:42:49;;;;;;;;;;;22.60;72.70;;;;;;5123260;28;19916;-49
2023/09/29 02:45:15;;;;;;;;;;;22.60;72.70;;;;;;5123362;28;19907;-48
2023/09/29 02:47:47;;;;;;;;;;;22.60;72.70;;;;;;5138467;27;19907;-49
2023/09/29 02:50:12;;;;;;;;;;;22.60;72.80;;;;;;5122620;28;19915;-48
2023/09/29 02:52:39;;;;;;;;;;;22.60;72.70;;;;;;5122952;28;19911;-49
2023/09/29 02:55:05;;;;;;;;;;;22.60;72.80;;;;;;5121916;28;19915;-49
2023/09/29 02:57:31;;;;;;;;;;;22.50;72.60;;;;;;5112273;28;20006;-50
2023/09/29 02:59:57;;;;;;;;;;;22.50;72.60;;;;;;5102342;28;19947;-50
2023/09/29 03:02:23;;;;;;;;;;;22.50;72.60;;;;;;5102370;28;19951;-49
2023/09/29 03:04:51;;;;;;;;;;;22.50;72.60;;;;;;5101618;28;19916;-51
2023/09/29 03:07:17;;;;;;;;;;;22.50;72.60;;;;;;5102376;28;19908;-49
2023/09/29 03:09:43;;;;;;;;;;;22.50;72.60;;;;;;5102098;28;19947;-51
2023/09/29 03:12:09;;;;;;;;;;;22.50;72.60;;;;;;5102495;28;19908;-53
2023/09/29 03:14:35;;;;;;;;;;;22.50;72.60;;;;;;5106890;28;19912;-49
2023/09/29 03:17:00;;;;;;;;;;;22.50;72.70;;;;;;5095228;28;20593;-51
2023/09/29 03:19:26;;;;;;;;;;;22.50;72.70;;;;;;5084178;28;20284;-49
2023/09/29 03:21:53;;;;;;;;;;;22.40;72.70;;;;;;5102060;28;19922;-50
2023/09/29 03:24:19;;;;;;;;;;;22.40;72.70;;;;;;5102980;28;19908;-49
2023/09/29 03:26:45;;;;;;;;;;;22.40;72.70;;;;;;5101839;28;19912;-49
2023/09/29 03:29:11;;;;;;;;;;;22.40;72.70;;;;;;5102385;28;19931;-48
2023/09/29 03:31:36;;;;;;;;;;;22.40;72.70;;;;;;5101219;28;19915;-49
2023/09/29 03:34:02;;;;;;;;;;;22.40;72.80;;;;;;5098749;28;19983;-50
2023/09/29 03:36:31;;;;;;;;;;;22.40;72.70;;;;;;5102272;28;19920;-49
2023/09/29 03:38:59;;;;;;;;;;;22.40;72.70;;;;;;5101851;28;19919;-49
2023/09/29 03:41:25;;;;;;;;;;;22.40;72.70;;;;;;5101765;28;19912;-48
2023/09/29 03:43:52;;;;;;;;;;;22.30;72.80;;;;;;5101206;28;19933;-49
2023/09/29 03:46:20;;;;;;;;;;;22.30;72.80;;;;;;5102412;28;20395;-48
2023/09/29 03:48:47;;;;;;;;;;;22.30;72.80;;;;;;5103034;28;19908;-52
2023/09/29 03:51:23;;;;;;;;;;;22.30;72.70;;;;;;5099421;28;19917;-48
2023/09/29 03:53:57;;;;;;;;;;;22.30;72.80;;;;;;5105738;28;19916;-48
2023/09/29 03:56:23;;;;;;;;;;;22.30;72.80;;;;;;5095496;28;20369;-49
2023/09/29 03:58:49;;;;;;;;;;;22.30;72.80;;;;;;5124851;28;19965;-49
2023/09/29 04:01:16;;;;;;;;;;;22.30;72.80;;;;;;5108517;28;19947;-51
2023/09/29 04:03:42;;;;;;;;;;;22.30;72.90;;;;;;5107117;28;19912;-49
2023/09/29 04:06:08;;;;;;;;;;;22.30;72.90;;;;;;5120187;28;19908;-51
2023/09/29 04:08:34;;;;;;;;;;;22.30;72.90;;;;;;5123772;27;20379;-49
2023/09/29 04:11:00;;;;;;;;;;;22.20;72.90;;;;;;5107914;28;19918;-49
2023/09/29 04:13:26;;;;;;;;;;;22.20;73.00;;;;;;5126008;27;19971;-50
2023/09/29 04:15:52;;;;;;;;;;;22.20;73.60;;;;;;5125371;28;19959;-48
2023/09/29 04:18:18;;;;;;;;;;;22.20;73.60;;;;;;5125977;28;19914;-49
2023/09/29 04:20:44;;;;;;;;;;;22.20;73.00;;;;;;5125208;28;19907;-49
2023/09/29 04:23:09;;;;;;;;;;;22.20;73.00;;;;;;5125005;28;19918;-49
2023/09/29 04:25:35;;;;;;;;;;;22.20;73.00;;;;;;5127201;27;19918;-48
2023/09/29 04:28:01;;;;;;;;;;;22.20;73.00;;;;;;5118910;28;19918;-48
2023/09/29 04:30:27;;;;;;;;;;;22.20;73.00;;;;;;5125941;28;19915;-49
2023/09/29 04:32:53;;;;;;;;;;;22.10;73.00;;;;;;5124255;28;19912;-49
2023/09/29 04:35:19;;;;;;;;;;;22.10;73.00;;;;;;5125138;27;19927;-47
2023/09/29 04:37:45;;;;;;;;;;;22.10;73.00;;;;;;5124246;28;19908;-51
2023/09/29 04:40:11;;;;;;;;;;;22.10;73.00;;;;;;5090207;28;19914;-51
2023/09/29 04:42:37;;;;;;;;;;;22.10;73.10;;;;;;5125017;28;20249;-50
2023/09/29 04:45:04;;;;;;;;;;;22.10;73.10;;;;;;5125729;27;20002;-51
2023/09/29 04:47:30;;;;;;;;;;;22.10;73.10;;;;;;5124696;28;19954;-48
2023/09/29 04:49:56;;;;;;;;;;;22.10;73.20;;;;;;5127120;27;19974;-48
2023/09/29 04:52:22;;;;;;;;;;;22.10;73.30;;;;;;5124411;28;19907;-47
2023/09/29 04:54:48;;;;;;;;;;;22.10;73.20;;;;;;5124881;27;19911;-48
2023/09/29 04:57:14;;;;;;;;;;;22.00;73.10;;;;;;5116765;28;19920;-47
2023/09/29 04:59:41;;;;;;;;;;;22.00;73.10;;;;;;5104299;28;19991;-49
2023/09/29 05:02:07;;;;;;;;;;;22.00;73.20;;;;;;5100592;28;19912;-48
2023/09/29 05:04:33;;;;;;;;;;;22.00;73.20;;;;;;5107414;28;19908;-47
2023/09/29 05:06:59;;;;;;;;;;;22.00;73.20;;;;;;5105199;28;19992;-47
2023/09/29 05:09:25;;;;;;;;;;;22.00;73.30;;;;;;5107451;28;19939;-47
2023/09/29 05:11:51;;;;;;;;;;;22.00;73.30;;;;;;5086611;28;19918;-48
2023/09/29 05:14:16;;;;;;;;;;;22.00;73.20;;;;;;5104323;28;19908;-47
2023/09/29 05:16:42;;;;;;;;;;;22.00;73.30;;;;;;5103879;28;19924;-48
2023/09/29 05:19:10;;;;;;;;;;;22.00;73.30;;;;;;5104563;28;19943;-47
2023/09/29 05:21:36;;;;;;;;;;;22.00;73.30;;;;;;5106023;28;19934;-49
2023/09/29 05:24:02;;;;;;;;;;;22.00;73.40;;;;;;5086361;28;19947;-48
2023/09/29 05:26:28;;;;;;;;;;;21.90;73.40;;;;;;5104490;28;19912;-49
2023/09/29 05:28:55;;;;;;;;;;;21.90;73.40;;;;;;5103366;28;19920;-48
2023/09/29 05:31:21;;;;;;;;;;;21.90;73.40;;;;;;5104315;28;19947;-52
2023/09/29 05:33:47;;;;;;;;;;;21.90;73.50;;;;;;5085556;28;19976;-47
2023/09/29 05:36:13;;;;;;;;;;;21.90;73.40;;;;;;5104088;28;19959;-48
2023/09/29 05:38:38;;;;;;;;;;;21.90;73.40;;;;;;5095765;28;19912;-49
2023/09/29 05:41:04;;;;;;;;;;;21.90;73.50;;;;;;5100080;28;19911;-48
2023/09/29 05:43:30;;;;;;;;;;;21.90;73.50;;;;;;5095559;28;19908;-48
2023/09/29 05:45:56;;;;;;;;;;;21.90;73.50;;;;;;5095961;28;20292;-48
2023/09/29 05:48:22;;;;;;;;;;;21.80;73.40;;;;;;5103792;28;19923;-48
2023/09/29 05:50:49;;;;;;;;;;;21.80;73.40;;;;;;5105078;28;20050;-48
2023/09/29 05:53:16;;;;;;;;;;;21.80;73.50;;;;;;5103759;28;19971;-48
2023/09/29 05:55:42;;;;;;;;;;;21.80;73.50;;;;;;5110289;28;19946;-48
2023/09/29 05:58:08;;;;;;;;;;;21.80;73.50;;;;;;5121587;28;19922;-48
2023/09/29 06:00:34;;;;;;;;;;;21.80;73.50;;;;;;5097791;28;19943;-48
2023/09/29 06:03:00;;;;;;;;;;;21.80;73.50;;;;;;5124019;28;19933;-46
2023/09/29 06:05:29;;;;;;;;;;;21.80;73.50;;;;;;5126047;27;20001;-51
2023/09/29 06:07:55;;;;;;;;;;;21.80;73.50;;;;;;5124055;28;19911;-47
2023/09/29 06:10:21;;;;;;;;;;;21.80;73.60;;;;;;5105666;28;20432;-46
2023/09/29 06:12:47;;;;;;;;;;;21.70;73.60;;;;;;5123770;27;19911;-48
2023/09/29 06:15:13;;;;;;;;;;;21.80;73.70;;;;;;5115825;28;20006;-46
2023/09/29 06:17:39;;;;;;;;;;;21.70;73.70;;;;;;5122728;27;19915;-47
2023/09/29 06:20:05;;;;;;;;;;;21.70;73.60;;;;;;5086959;28;19954;-47
2023/09/29 06:22:31;;;;;;;;;;;21.70;73.60;;;;;;5116548;28;19908;-47
2023/09/29 06:24:57;;;;;;;;;;;21.70;73.70;;;;;;5122458;28;19911;-47
2023/09/29 06:27:23;;;;;;;;;;;21.70;73.60;;;;;;5123585;28;20296;-47
2023/09/29 06:29:50;;;;;;;;;;;21.70;73.70;;;;;;5112490;28;20008;-46
2023/09/29 06:32:16;;;;;;;;;;;21.70;73.70;;;;;;5112300;28;19914;-48
2023/09/29 06:34:42;;;;;;;;;;;21.70;73.70;;;;;;5121953;27;19915;-49
2023/09/29 06:37:10;;;;;;;;;;;21.70;73.70;;;;;;5116101;28;19912;-47
2023/09/29 06:39:36;;;;;;;;;;;21.60;73.60;;;;;;5115166;28;20342;-47
2023/09/29 06:42:03;;;;;;;;;;;21.60;73.60;;;;;;5115813;28;19916;-47
2023/09/29 06:44:29;;;;;;;;;;;21.60;73.70;;;;;;5123358;28;19912;-47
2023/09/29 06:46:55;;;;;;;;;;;21.60;73.80;;;;;;5123657;28;19993;-47
2023/09/29 06:49:21;;;;;;;;;;;21.60;73.70;;;;;;5123773;28;19911;-47
2023/09/29 06:51:48;;;;;;;;;;;21.60;73.70;;;;;;5123446;28;19950;-47
2023/09/29 06:54:14;;;;;;;;;;;21.60;73.80;;;;;;5111202;28;19919;-48
2023/09/29 06:56:40;;;;;;;;;;;21.60;73.80;;;;;;5118090;28;19920;-46
2023/09/29 06:59:07;;;;;;;;;;;21.60;73.80;;;;;;5122549;28;19919;-48
2023/09/29 07:01:33;;;;;;;;;;;21.50;73.80;;;;;;5122585;28;19915;-47
2023/09/29 07:03:59;;;;;;;;;;;21.60;73.90;;;;;;5123338;28;20390;-46
2023/09/29 07:06:25;;;;;;;;;;;21.60;73.90;;;;;;5115717;28;19969;-46
2023/09/29 07:08:51;;;;;;;;;;;21.60;73.90;;;;;;5130756;28;19908;-46
2023/09/29 07:11:17;;;;;;;;;;;21.60;73.90;;;;;;5122803;28;19972;-47
2023/09/29 07:13:43;;;;;;;;;;;21.50;73.80;;;;;;5123247;28;19915;-47
2023/09/29 07:16:09;;;;;;;;;;;21.50;73.80;;;;;;5123529;28;20367;-46
2023/09/29 07:18:35;;;;;;;;;;;21.50;73.90;;;;;;5118729;28;19907;-47
2023/09/29 07:21:01;;;;;;;;;;;21.50;73.90;;;;;;5115662;28;19914;-47
2023/09/29 07:23:29;;;;;;;;;;;21.50;73.90;;;;;;5122243;28;19912;-48
2023/09/29 07:25:55;;;;;;;;;;;21.50;74.00;;;;;;5122215;28;19955;-46
2023/09/29 07:28:21;;;;;;;;;;;21.50;73.90;;;;;;5122584;28;19915;-47
2023/09/29 07:30:47;;;;;;;;;;;21.50;74.00;;;;;;5122597;28;20433;-47
2023/09/29 07:33:13;;;;;;;;;;;21.50;73.90;;;;;;5126668;28;19951;-48
2023/09/29 07:35:39;;;;;;;;;;;21.40;73.90;;;;;;5125533;27;19927;-48
2023/09/29 07:38:05;;;;;;;;;;;21.40;73.90;;;;;;5126645;28;19911;-48
2023/09/29 07:40:37;;;;;;;;;;;21.40;74.00;;;;;;5126455;28;19911;-47
2023/09/29 07:43:06;;;;;;;;;;;21.40;73.90;;;;;;5106601;28;19915;-49
2023/09/29 07:45:32;;;;;;;;;;;21.40;74.00;;;;;;5119250;28;19919;-48
2023/09/29 07:47:58;;;;;;;;;;;21.40;74.00;;;;;;5122810;28;20436;-48
2023/09/29 07:50:24;;;;;;;;;;;21.40;74.00;;;;;;5126734;28;19911;-47
2023/09/29 07:52:50;;;;;;;;;;;21.40;74.10;;;;;;5126198;28;19916;-47
2023/09/29 07:55:16;;;;;;;;;;;21.40;74.10;;;;;;5117590;28;19966;-46
2023/09/29 07:57:42;;;;;;;;;;;21.40;74.10;;;;;;5123858;28;19926;-48
2023/09/29 08:00:13;;;;;;;;;;;21.40;74.10;;;;;;5119118;28;20356;-47
2023/09/29 08:02:39;;;;;;;;;;;21.30;74.00;;;;;;5125662;27;19942;-46
2023/09/29 08:05:07;;;;;;;;;;;21.30;74.00;;;;;;5100090;28;19912;-46
2023/09/29 08:07:33;;;;;;;;;;;21.30;74.10;;;;;;5125782;28;20007;-46
2023/09/29 08:09:59;;;;;;;;;;;21.30;74.10;;;;;;5123126;27;19958;-48
2023/09/29 08:12:25;;;;;;;;;;;21.30;74.10;;;;;;5126193;28;19911;-47
2023/09/29 08:14:51;;;;;;;;;;;21.30;74.10;;;;;;5125409;27;19918;-47
2023/09/29 08:17:18;;;;;;;;;;;21.30;74.10;;;;;;5126409;28;19912;-47
2023/09/29 08:19:44;;;;;;;;;;;21.30;74.20;;;;;;5125640;28;19911;-48
2023/09/29 08:22:10;;;;;;;;;;;21.30;74.20;;;;;;5125802;28;19923;-48
2023/09/29 08:24:36;;;;;;;;;;;21.30;74.20;;;;;;5125005;28;19912;-47
2023/09/29 08:27:02;;;;;;;;;;;21.20;74.10;;;;;;5118466;28;19982;-47
2023/09/29 08:29:28;;;;;;;;;;;21.20;74.10;;;;;;5125685;28;20471;-48
2023/09/29 08:31:56;;;;;;;;;;;21.20;74.20;;;;;;5124453;28;19911;-48
2023/09/29 08:34:22;;;;;;;;;;;21.20;74.10;;;;;;5125703;28;19912;-46
2023/09/29 08:36:47;;;;;;;;;;;21.20;74.10;;;;;;5124743;27;19954;-46
2023/09/29 08:39:13;;;;;;;;;;;21.20;74.20;;;;;;5106904;28;19911;-46
2023/09/29 08:41:42;;;;;;;;;;;21.20;74.20;;;;;;5124594;27;19998;-47
2023/09/29 08:44:08;;;;;;;;;;;21.20;74.20;;;;;;5125572;28;19929;-47
2023/09/29 08:46:37;;;;;;;;;;;21.10;74.20;;;;;;5124666;28;19979;-46
2023/09/29 08:49:05;;;;;;;;;;;21.20;74.20;;;;;;5121591;28;19923;-47
2023/09/29 08:51:33;;;;;;;;;;;21.10;74.30;;;;;;5124045;28;19918;-48
2023/09/29 08:53:59;;;;;;;;;;;21.10;74.30;;;;;;5124697;28;19918;-46
2023/09/29 08:56:25;;;;;;;;;;;21.10;74.30;;;;;;5104930;28;19942;-47
2023/09/29 08:58:51;;;;;;;;;;;21.10;75.00;;;;;;5124452;28;19943;-46
2023/09/29 09:01:17;;;;;;;;;;;21.10;74.40;;;;;;5125208;28;19911;-46
2023/09/29 09:03:43;;;;;;;;;;;21.10;74.40;;;;;;5124248;28;20660;-46
2023/09/29 09:06:24;;;;;;;;;;;21.10;74.30;;;;;;5124939;28;20586;-48
2023/09/29 09:08:51;;;;;;;;;;;21.10;74.40;;;;;;5124301;27;19911;-47
2023/09/29 09:11:17;;;;;;;;;;;21.10;74.40;;;;;;5125460;28;19911;-49
2023/09/29 09:13:53;;;;;;;;;;;21.00;74.30;;;;;;5124861;28;20006;-45
2023/09/29 09:16:19;;;;;;;;;;;21.00;74.30;;;;;;5124539;27;20427;-46
2023/09/29 09:18:45;;;;;;;;;;;21.00;74.30;;;;;;5105830;28;19915;-45
2023/09/29 09:21:12;;;;;;;;;;;21.00;74.40;;;;;;5125021;27;19990;-47
2023/09/29 09:23:38;;;;;;;;;;;21.00;74.40;;;;;;5124747;28;20005;-46
2023/09/29 09:26:16;;;;;;;;;;;21.00;75.10;;;;;;5116171;28;19919;-45
2023/09/29 09:28:42;;;;;;;;;;;21.00;74.40;;;;;;5123906;28;19920;-46
2023/09/29 09:31:09;;;;;;;;;;;21.00;74.40;;;;;;5124912;28;19919;-47
2023/09/29 09:33:35;;;;;;;;;;;21.00;74.50;;;;;;5123986;27;19912;-46
2023/09/29 09:36:09;;;;;;;;;;;21.00;74.40;;;;;;5124411;27;19919;-46
2023/09/29 09:38:35;;;;;;;;;;;21.00;74.40;;;;;;5116236;28;19911;-46
2023/09/29 09:41:01;;;;;;;;;;;21.00;74.50;;;;;;5124380;28;20136;-46
2023/09/29 09:43:34;;;;;;;;;;;20.90;74.50;;;;;;5124172;28;20032;-46
2023/09/29 09:46:03;;;;;;;;;;;20.90;74.50;;;;;;5123971;28;19948;-46
2023/09/29 09:48:33;;;;;;;;;;;20.90;74.50;;;;;;5123869;28;19934;-46
2023/09/29 09:50:59;;;;;;;;;;;20.90;74.50;;;;;;5123543;28;19911;-46
2023/09/29 09:53:25;;;;;;;;;;;20.90;74.50;;;;;;5123648;28;20453;-45
2023/09/29 09:56:01;;;;;;;;;;;20.90;74.50;;;;;;5105221;28;20369;-46
2023/09/29 09:58:27;;;;;;;;;;;20.90;74.50;;;;;;5105829;28;19919;-46
2023/09/29 10:00:55;;;;;;;;;;;20.90;74.60;;;;;;5123196;28;19912;-46
2023/09/29 10:03:22;;;;;;;;;;;20.90;74.60;;;;;;5124042;28;20440;-47
2023/09/29 10:05:56;;;;;;;;;;;20.90;74.60;;;;;;5121761;28;19954;-46
2023/09/29 10:08:32;;;;;;;;;;;20.90;74.60;;;;;;5121420;28;19912;-46
2023/09/29 10:11:13;;;;;;;;;;;20.90;74.60;;;;;;5123146;28;20006;-46
2023/09/29 10:13:47;;;;;;;;;;;20.90;74.70;;;;;;5123279;28;20375;-46
2023/09/29 10:16:19;;;;;;;;;;;20.80;74.60;;;;;;5122744;28;19924;-46
2023/09/29 10:18:53;;;;;;;;;;;20.80;74.60;;;;;;5122193;28;19907;-46
2023/09/29 10:21:20;;;;;;;;;;;20.80;74.60;;;;;;5122385;28;19912;-46
2023/09/29 10:23:46;;;;;;;;;;;20.80;74.70;;;;;;5123139;28;19935;-46
2023/09/29 10:26:13;;;;;;;;;;;20.80;74.70;;;;;;5123215;28;19959;-47
2023/09/29 10:28:39;;;;;;;;;;;20.80;74.60;;;;;;5123165;28;19918;-47
2023/09/29 10:31:08;;;;;;;;;;;20.80;74.80;;;;;;5123780;28;19911;-47
2023/09/29 10:34:03;;;;;;;;;;;20.80;74.70;;;;;;5123374;28;19983;-46
2023/09/29 10:36:30;;;;;;;;;;;20.80;74.70;;;;;;5108855;28;19983;-47
2023/09/29 10:39:03;;;;;;;;;;;20.70;74.70;;;;;;5123464;28;19911;-46
2023/09/29 10:41:31;;;;;;;;;;;20.70;75.50;;;;;;5123384;28;19911;-47
2023/09/29 10:44:00;;;;;;;;;;;20.70;74.70;;;;;;5123358;28;19918;-46
2023/09/29 10:46:26;;;;;;;;;;;20.70;74.70;;;;;;5122844;27;20405;-46
2023/09/29 10:48:55;;;;;;;;;;;20.70;74.80;;;;;;5122452;28;19912;-47
2023/09/29 10:51:30;;;;;;;;;;;20.70;74.80;;;;;;5123208;28;20356;-46
2023/09/29 10:54:01;;;;;;;;;;;20.70;74.80;;;;;;5122878;28;20019;-47
2023/09/29 10:56:27;;;;;;;;;;;20.70;74.80;;;;;;5120284;28;19930;-47
2023/09/29 10:58:53;;;;;;;;;;;20.70;74.90;;;;;;5104148;28;20148;-47
2023/09/29 11:01:20;;;;;;;;;;;20.70;74.90;;;;;;5110357;28;19925;-47
2023/09/29 11:03:46;;;;;;;;;;;20.70;74.90;;;;;;5107318;28;19998;-47
2023/09/29 11:06:16;;;;;;;;;;;20.70;74.90;;;;;;5097291;28;19912;-46
2023/09/29 11:08:45;;;;;;;;;;;20.60;74.90;;;;;;5109611;28;19911;-46
2023/09/29 11:11:11;;;;;;;;;;;20.60;74.90;;;;;;5113585;28;19912;-46
2023/09/29 11:13:37;;;;;;;;;;;20.60;74.80;;;;;;5111376;28;19930;-46
2023/09/29 11:16:04;;;;;;;;;;;20.60;74.80;;;;;;5117298;28;19998;-45
2023/09/29 11:18:34;;;;;;;;;;;20.60;74.90;;;;;;5100403;28;20045;-46
2023/09/29 11:21:08;;;;;;;;;;;20.60;74.90;;;;;;5113335;28;19912;-47
2023/09/29 11:23:38;;;;;;;;;;;20.60;74.90;;;;;;5112280;28;19951;-46
2023/09/29 11:26:09;;;;;;;;;;;20.60;74.90;;;;;;5115869;28;19908;-46
2023/09/29 11:28:40;;;;;;;;;;;20.60;74.90;;;;;;5121304;28;19943;-46
2023/09/29 11:31:05;;;;;;;;;;;20.60;75.00;;;;;;5120001;28;19911;-46
2023/09/29 11:33:31;;;;;;;;;;;20.60;74.90;;;;;;5119775;28;19920;-47
2023/09/29 11:35:57;;;;;;;;;;;20.60;75.00;;;;;;5118890;28;19926;-46
2023/09/29 11:38:24;;;;;;;;;;;20.60;75.00;;;;;;5101306;28;19923;-46
2023/09/29 11:40:50;;;;;;;;;;;20.50;74.90;;;;;;5116440;28;19915;-46
2023/09/29 11:43:16;;;;;;;;;;;20.50;75.00;;;;;;5119168;28;19908;-45
2023/09/29 11:45:42;;;;;;;;;;;20.50;75.00;;;;;;5119113;28;19918;-45
2023/09/29 11:48:08;;;;;;;;;;;20.50;75.00;;;;;;5118752;28;19908;-45
2023/09/29 11:50:34;;;;;;;;;;;20.50;75.00;;;;;;5118456;28;19911;-46
2023/09/29 11:53:03;;;;;;;;;;;20.50;75.00;;;;;;5118907;28;19912;-47
2023/09/29 11:55:29;;;;;;;;;;;20.50;75.00;;;;;;5117946;28;19919;-45
2023/09/29 11:57:55;;;;;;;;;;;20.50;75.00;;;;;;5125536;27;20439;-46
2023/09/29 12:00:21;;;;;;;;;;;20.50;75.00;;;;;;5114873;28;19935;-45
2023/09/29 12:02:47;;;;;;;;;;;20.50;75.00;;;;;;5113206;27;19942;-45
2023/09/29 12:05:13;;;;;;;;;;;20.50;75.00;;;;;;5126932;28;20435;-46
2023/09/29 12:07:39;;;;;;;;;;;20.40;75.10;;;;;;5119202;27;19914;-46
2023/09/29 12:10:05;;;;;;;;;;;20.40;75.10;;;;;;5121814;28;19912;-46
2023/09/29 12:12:32;;;;;;;;;;;20.40;75.10;;;;;;5121629;27;19948;-47
2023/09/29 12:14:58;;;;;;;;;;;20.50;75.10;;;;;;5125387;28;19972;-46
2023/09/29 12:17:25;;;;;;;;;;;20.40;75.10;;;;;;5124196;28;19946;-45
2023/09/29 12:19:51;;;;;;;;;;;20.40;75.10;;;;;;5125896;28;19916;-46
2023/09/29 12:22:18;;;;;;;;;;;20.40;75.10;;;;;;5125075;28;19988;-45
2023/09/29 12:24:44;;;;;;;;;;;20.40;75.10;;;;;;5122549;27;20042;-45
2023/09/29 12:27:10;;;;;;;;;;;20.40;75.10;;;;;;5125791;27;19918;-46
2023/09/29 12:29:36;;;;;;;;;;;20.40;75.10;;;;;;5125776;27;19923;-45
2023/09/29 12:32:02;;;;;;;;;;;20.40;75.20;;;;;;5126356;28;19921;-47
2023/09/29 12:34:34;;;;;;;;;;;20.40;75.10;;;;;;5124907;28;20404;-46
2023/09/29 12:37:00;;;;;;;;;;;20.30;75.10;;;;;;5119486;28;19919;-46
2023/09/29 12:39:26;;;;;;;;;;;20.30;75.10;;;;;;5124854;28;19918;-46
2023/09/29 12:41:52;;;;;;;;;;;20.30;75.10;;;;;;5123749;28;19947;-46
2023/09/29 12:44:18;;;;;;;;;;;20.30;75.10;;;;;;5125253;28;19923;-49
2023/09/29 12:46:44;;;;;;;;;;;20.30;75.10;;;;;;5125240;27;20055;-46
2023/09/29 12:49:10;;;;;;;;;;;20.30;75.20;;;;;;5127112;27;19911;-47
2023/09/29 12:51:36;;;;;;;;;;;20.30;75.20;;;;;;5125465;28;19908;-46
2023/09/29 12:54:02;;;;;;;;;;;20.30;75.30;;;;;;5117133;27;19966;-46
2023/09/29 12:56:28;;;;;;;;;;;20.30;75.20;;;;;;5124106;28;19923;-50
2023/09/29 12:58:55;;;;;;;;;;;20.30;75.20;;;;;;5120308;28;19943;-46
2023/09/29 13:01:22;;;;;;;;;;;20.30;75.30;;;;;;5125393;28;19911;-45
2023/09/29 13:03:48;;;;;;;;;;;20.30;75.30;;;;;;5123515;28;20579;-46
2023/09/29 13:06:13;;;;;;;;;;;20.30;75.30;;;;;;5125673;27;19915;-47
2023/09/29 13:08:39;;;;;;;;;;;20.30;75.20;;;;;;5123493;28;20302;-46
2023/09/29 13:11:05;;;;;;;;;;;20.30;75.20;;;;;;5125276;28;19912;-47
2023/09/29 13:13:31;;;;;;;;;;;20.30;75.20;;;;;;5140056;27;19969;-46
2023/09/29 13:15:59;;;;;;;;;;;20.30;75.30;;;;;;5124339;28;19919;-46
2023/09/29 13:18:27;;;;;;;;;;;20.30;75.20;;;;;;5124306;28;19964;-46
2023/09/29 13:20:53;;;;;;;;;;;20.30;75.30;;;;;;5124050;27;19919;-46
2023/09/29 13:23:21;;;;;;;;;;;20.20;75.20;;;;;;5124934;28;19911;-47
2023/09/29 13:25:47;;;;;;;;;;;20.20;75.30;;;;;;5124970;27;19911;-47
2023/09/29 13:28:13;;;;;;;;;;;20.20;75.30;;;;;;5126496;27;20353;-50
2023/09/29 13:30:39;;;;;;;;;;;20.20;75.20;;;;;;5122224;27;19916;-49
2023/09/29 13:33:05;;;;;;;;;;;20.20;75.30;;;;;;5124289;27;19911;-48
2023/09/29 13:35:31;;;;;;;;;;;20.30;75.30;;;;;;5125410;27;19930;-47
2023/09/29 13:37:57;;;;;;;;;;;20.20;75.30;;;;;;5122573;27;19912;-46
2023/09/29 13:40:22;;;;;;;;;;;20.20;75.30;;;;;;5125163;27;19915;-50
2023/09/29 13:42:48;;;;;;;;;;;20.20;75.30;;;;;;5121273;27;19915;-48
2023/09/29 13:45:14;;;;;;;;;;;20.20;75.30;;;;;;5124952;27;19911;-47
2023/09/29 13:47:40;;;;;;;;;;;20.20;75.30;;;;;;5121522;27;19918;-47
2023/09/29 13:50:10;;;;;;;;;;;20.20;75.30;;;;;;5124487;27;19988;-46
2023/09/29 13:52:35;;;;;;;;;;;20.20;75.30;;;;;;5123513;27;19923;-48
2023/09/29 13:55:01;;;;;;;;;;;20.30;75.30;;;;;;5123589;27;19911;-48
2023/09/29 13:57:28;;;;;;;;;;;20.20;75.30;;;;;;5111244;27;19920;-50
2023/09/29 13:59:54;;;;;;;;;;;20.20;75.30;;;;;;5102810;28;19916;-50
2023/09/29 14:02:20;;;;;;;;;;;20.20;75.40;;;;;;5103562;28;20420;-47
2023/09/29 14:04:46;;;;;;;;;;;20.20;75.30;;;;;;5102876;28;19915;-49
2023/09/29 14:07:11;;;;;;;;;;;20.30;75.40;;;;;;5100814;28;20403;-47
2023/09/29 14:09:37;;;;;;;;;;;20.30;75.40;;;;;;5102724;28;20046;-46
2023/09/29 14:12:05;;;;;;;;;;;20.20;75.40;;;;;;5095999;28;19922;-47
2023/09/29 14:14:31;;;;;;;;;;;20.20;75.40;;;;;;5085655;28;19912;-48